Time;durP1;ratioP1;P1;durP2;ratioP2;P2;SDS_P1;SDS_P2;PMS_P1;PMS_P2;Temp;Humidity;BMP_temperature;BMP_pressure;BME280_temperature;BME280_humidity;BME280_pressure;Samples;Min_cycle;Max_cycle;Signal;HPM_P1;HPM_P2
2021/12/25 00:04:57;;;;;;;1.90;0.90;;;;;;;;;;10297781;28;20034;-71
2021/12/25 00:10:00;;;;;;;2.83;1.30;;;;;;;;;;10282678;28;20043;-69
2021/12/25 00:15:05;;;;;;;0.50;0.47;;;;;;;;;;10282534;28;20031;-70
2021/12/25 00:20:08;;;;;;;2.67;1.40;;;;;;;;;;10265645;28;20766;-70
2021/12/25 00:25:12;;;;;;;0.97;0.87;;;;;;;;;;10275732;28;20035;-69
2021/12/25 00:30:24;;;;;;;2.17;1.20;;;;;;;;;;10284679;28;20178;-70
2021/12/25 00:35:27;;;;;;;3.50;1.35;;;;;;;;;;10274844;28;20075;-70
2021/12/25 00:40:30;;;;;;;3.22;1.25;;;;;;;;;;10268048;28;20109;-70
2021/12/25 00:45:34;;;;;;;2.80;1.38;;;;;;;;;;10303167;28;20071;-73
2021/12/25 00:50:38;;;;;;;2.67;1.40;;;;;;;;;;10295795;28;20451;-70
2021/12/25 00:55:40;;;;;;;3.45;1.40;;;;;;;;;;10295077;28;20093;-71
2021/12/25 01:00:45;;;;;;;2.78;1.20;;;;;;;;;;10278950;28;20114;-72
2021/12/25 01:05:48;;;;;;;1.05;0.57;;;;;;;;;;10285324;28;20035;-70
2021/12/25 01:10:51;;;;;;;2.22;0.90;;;;;;;;;;10274166;28;20048;-71
2021/12/25 01:16:13;;;;;;;5.60;1.13;;;;;;;;;;10287147;28;20660;-70
2021/12/25 01:32:13;;;;;;;2.63;1.13;;;;;;;;;;10280438;28;20344;-70
2021/12/25 01:37:20;;;;;;;2.60;1.17;;;;;;;;;;10277819;28;20077;-70
2021/12/25 01:47:49;;;;;;;2.58;1.30;;;;;;;;;;10271256;28;20030;-69
2021/12/25 01:52:53;;;;;;;2.67;1.30;;;;;;;;;;10279694;28;20045;-71
2021/12/25 01:57:57;;;;;;;1.52;1.10;;;;;;;;;;10282491;28;20034;-70
2021/12/25 02:03:02;;;;;;;1.85;1.30;;;;;;;;;;10268435;28;20594;-69
2021/12/25 02:08:05;;;;;;;3.25;1.50;;;;;;;;;;10269517;28;20375;-71
2021/12/25 02:13:09;;;;;;;3.77;1.50;;;;;;;;;;10267542;28;20381;-70
2021/12/25 02:18:23;;;;;;;1.23;0.63;;;;;;;;;;10254330;28;20447;-70
2021/12/25 02:23:28;;;;;;;3.00;1.13;;;;;;;;;;10283964;28;20042;-70
2021/12/25 02:28:31;;;;;;;3.45;1.17;;;;;;;;;;10273032;28;20054;-70
2021/12/25 02:33:34;;;;;;;1.65;0.85;;;;;;;;;;10290998;28;20224;-71
2021/12/25 02:38:38;;;;;;;2.90;1.07;;;;;;;;;;10268028;28;20045;-69
2021/12/25 02:43:44;;;;;;;1.55;1.10;;;;;;;;;;10282593;28;20027;-69
2021/12/25 02:48:47;;;;;;;2.42;1.20;;;;;;;;;;10263068;28;20399;-69
2021/12/25 02:53:51;;;;;;;1.35;1.00;;;;;;;;;;10257238;28;20391;-68
2021/12/25 02:58:54;;;;;;;1.73;1.08;;;;;;;;;;10282115;28;20043;-69
2021/12/25 03:03:57;;;;;;;2.35;1.13;;;;;;;;;;10291313;28;20039;-69
2021/12/25 03:09:01;;;;;;;0.85;0.52;;;;;;;;;;10273311;28;20046;-70
2021/12/25 03:14:23;;;;;;;0.77;0.50;;;;;;;;;;10264195;28;20039;-70
2021/12/25 03:19:35;;;;;;;2.13;1.00;;;;;;;;;;10282608;28;20113;-69
2021/12/25 03:24:40;;;;;;;1.77;0.90;;;;;;;;;;10280003;28;20146;-69
2021/12/25 03:29:43;;;;;;;0.98;0.88;;;;;;;;;;10286646;28;20109;-70
2021/12/25 03:34:46;;;;;;;2.88;1.10;;;;;;;;;;10271724;28;20035;-70
2021/12/25 03:39:50;;;;;;;1.88;0.85;;;;;;;;;;10255480;28;20047;-68
2021/12/25 03:44:53;;;;;;;2.70;0.90;;;;;;;;;;10297679;28;20051;-71
2021/12/25 04:00:40;;;;;;;1.67;0.95;;;;;;;;;;10275919;28;20058;-71
2021/12/25 04:05:45;;;;;;;2.22;0.90;;;;;;;;;;10285662;28;20495;-68
2021/12/25 04:10:53;;;;;;;1.85;0.90;;;;;;;;;;10279084;28;20122;-71
2021/12/25 04:15:56;;;;;;;1.15;0.70;;;;;;;;;;10264926;28;20475;-70
2021/12/25 04:20:59;;;;;;;1.67;0.82;;;;;;;;;;10268378;28;20089;-70
2021/12/25 04:26:03;;;;;;;0.80;0.70;;;;;;;;;;10281846;28;20043;-70
2021/12/25 04:31:25;;;;;;;2.60;0.95;;;;;;;;;;10266297;28;20058;-70
2021/12/25 05:03:31;;;;;;;1.25;0.73;;;;;;;;;;10269155;28;20042;-70
2021/12/25 05:08:34;;;;;;;0.85;0.82;;;;;;;;;;10278467;28;20472;-71
2021/12/25 05:13:39;;;;;;;3.57;1.27;;;;;;;;;;10263789;28;20051;-72
2021/12/25 05:18:42;;;;;;;3.60;1.15;;;;;;;;;;10275894;28;20553;-72
2021/12/25 05:23:46;;;;;;;1.57;0.90;;;;;;;;;;10268836;28;20034;-71
2021/12/25 05:28:58;;;;;;;2.90;1.15;;;;;;;;;;10266278;28;20070;-69
2021/12/25 05:34:01;;;;;;;1.77;0.93;;;;;;;;;;10299133;28;20085;-70
2021/12/25 05:39:09;;;;;;;2.03;1.07;;;;;;;;;;10267802;28;20041;-71
2021/12/25 05:44:13;;;;;;;1.08;0.77;;;;;;;;;;10295188;28;20572;-71
2021/12/25 05:49:17;;;;;;;3.35;1.00;;;;;;;;;;10258175;28;20114;-71
2021/12/25 05:54:19;;;;;;;2.35;0.80;;;;;;;;;;10270830;23;20043;-72
2021/12/25 05:59:24;;;;;;;1.43;0.90;;;;;;;;;;10285428;28;20034;-71
2021/12/25 06:04:28;;;;;;;2.67;0.93;;;;;;;;;;10264292;28;20039;-72
2021/12/25 06:09:31;;;;;;;2.10;1.23;;;;;;;;;;10266685;28;20079;-73
2021/12/25 06:14:36;;;;;;;0.97;0.93;;;;;;;;;;10252026;23;20560;-75
2021/12/25 06:19:39;;;;;;;2.85;1.17;;;;;;;;;;10225797;28;20299;-75
2021/12/25 06:24:44;;;;;;;1.88;0.95;;;;;;;;;;10235740;28;20031;-74
2021/12/25 06:29:49;;;;;;;2.00;1.00;;;;;;;;;;10243553;28;20349;-76
2021/12/25 06:34:52;;;;;;;2.55;1.38;;;;;;;;;;10237011;28;20043;-74
2021/12/25 06:39:56;;;;;;;2.30;0.52;;;;;;;;;;10242065;28;20043;-75
2021/12/25 06:45:00;;;;;;;2.07;1.50;;;;;;;;;;10233600;28;20088;-75
2021/12/25 06:50:04;;;;;;;2.53;1.40;;;;;;;;;;10214705;28;20067;-75
2021/12/25 06:55:08;;;;;;;4.03;0.98;;;;;;;;;;10217964;28;20330;-75
2021/12/25 07:00:13;;;;;;;1.70;1.08;;;;;;;;;;10236757;28;20042;-74
2021/12/25 07:05:17;;;;;;;0.93;0.77;;;;;;;;;;10229090;28;20103;-75
2021/12/25 07:10:25;;;;;;;0.35;0.20;;;;;;;;;;10237088;28;20156;-75
2021/12/25 07:15:30;;;;;;;0.73;0.50;;;;;;;;;;10232850;28;20476;-75
2021/12/25 07:20:33;;;;;;;0.75;0.57;;;;;;;;;;10240354;28;20472;-76
2021/12/25 07:25:36;;;;;;;0.40;0.40;;;;;;;;;;10232622;28;20241;-75
2021/12/25 07:30:41;;;;;;;1.57;0.80;;;;;;;;;;10240872;28;20035;-75
2021/12/25 07:35:44;;;;;;;1.27;0.73;;;;;;;;;;10238612;28;20039;-75
2021/12/25 07:40:48;;;;;;;1.07;0.73;;;;;;;;;;10244592;28;20055;-75
2021/12/25 07:45:53;;;;;;;1.10;0.43;;;;;;;;;;10226491;28;20035;-76
2021/12/25 07:50:57;;;;;;;0.45;0.45;;;;;;;;;;10223045;28;20043;-75
2021/12/25 07:56:01;;;;;;;0.45;0.30;;;;;;;;;;10266280;28;20043;-75
2021/12/25 08:01:05;;;;;;;1.60;1.00;;;;;;;;;;10245554;28;20047;-75
2021/12/25 08:06:10;;;;;;;1.98;0.90;;;;;;;;;;10257814;28;20142;-76
2021/12/25 08:11:14;;;;;;;2.22;1.00;;;;;;;;;;10238295;28;20086;-75
2021/12/25 08:16:18;;;;;;;2.70;1.00;;;;;;;;;;10228567;28;20051;-74
2021/12/25 08:21:21;;;;;;;0.95;0.80;;;;;;;;;;10237193;28;20503;-75
2021/12/25 08:26:25;;;;;;;1.75;0.75;;;;;;;;;;10229640;28;20035;-75
2021/12/25 08:31:29;;;;;;;1.25;1.00;;;;;;;;;;10236909;28;20039;-74
2021/12/25 08:36:32;;;;;;;2.38;1.10;;;;;;;;;;10228971;28;20118;-75
2021/12/25 08:41:37;;;;;;;3.30;0.97;;;;;;;;;;10218232;28;20098;-75
2021/12/25 08:46:55;;;;;;;1.80;1.00;;;;;;;;;;10232834;28;20388;-74
2021/12/25 08:52:01;;;;;;;3.08;1.05;;;;;;;;;;10244945;28;20103;-75
2021/12/25 08:57:06;;;;;;;2.00;1.10;;;;;;;;;;10242890;28;20027;-75
2021/12/25 09:02:14;;;;;;;1.88;1.05;;;;;;;;;;10247064;28;20045;-76
2021/12/25 09:07:18;;;;;;;0.68;0.60;;;;;;;;;;10233207;28;20039;-76
2021/12/25 09:12:23;;;;;;;1.48;0.80;;;;;;;;;;10225314;28;20384;-74
2021/12/25 09:17:28;;;;;;;0.85;0.73;;;;;;;;;;10219609;28;20039;-76
2021/12/25 09:22:30;;;;;;;0.82;0.60;;;;;;;;;;10211564;28;20621;-75
2021/12/25 09:27:34;;;;;;;1.40;0.73;;;;;;;;;;10208330;28;20099;-75
2021/12/25 09:32:39;;;;;;;0.47;0.47;;;;;;;;;;10220544;28;20146;-75
2021/12/25 09:37:42;;;;;;;1.67;1.05;;;;;;;;;;10215279;28;20094;-76
2021/12/25 09:42:46;;;;;;;0.73;0.57;;;;;;;;;;10249033;28;20023;-75
2021/12/25 09:47:50;;;;;;;0.67;0.67;;;;;;;;;;10215926;28;20047;-75
2021/12/25 09:52:54;;;;;;;0.90;0.73;;;;;;;;;;10220160;28;20146;-75
2021/12/25 09:57:57;;;;;;;1.55;0.77;;;;;;;;;;10222604;28;20043;-74
2021/12/25 10:03:02;;;;;;;0.60;0.53;;;;;;;;;;10209762;28;20055;-76
2021/12/25 10:08:07;;;;;;;3.10;1.08;;;;;;;;;;10199483;28;20038;-75
2021/12/25 10:13:21;;;;;;;0.50;0.50;;;;;;;;;;10199527;28;20480;-76
2021/12/25 10:18:24;;;;;;;;;;;;;;;;;;10207367;28;20047;-74
2021/12/25 10:23:35;;;;;;;0.75;0.50;;;;;;;;;;10217998;28;20007;-76
2021/12/25 10:28:39;;;;;;;0.60;0.40;;;;;;;;;;10209260;28;20118;-76
2021/12/25 10:33:44;;;;;;;0.75;0.60;;;;;;;;;;10221040;28;20443;-76
2021/12/25 10:38:58;;;;;;;1.45;0.90;;;;;;;;;;10218661;28;20118;-75
2021/12/25 10:44:12;;;;;;;0.43;0.40;;;;;;;;;;10209845;28;20377;-75
2021/12/25 10:49:17;;;;;;;0.77;0.57;;;;;;;;;;10212251;28;20483;-75
2021/12/25 10:54:34;;;;;;;0.60;0.60;;;;;;;;;;10188884;28;20463;-77
2021/12/25 10:59:45;;;;;;;2.85;0.70;;;;;;;;;;10211973;28;20032;-76
2021/12/25 11:04:48;;;;;;;1.30;0.70;;;;;;;;;;10212018;28;20476;-75
2021/12/25 11:10:10;;;;;;;0.60;0.45;;;;;;;;;;10211606;28;20043;-76
2021/12/25 11:15:15;;;;;;;0.55;0.40;;;;;;;;;;10224639;28;20063;-76
2021/12/25 11:20:27;;;;;;;0.40;0.40;;;;;;;;;;10229163;28;20400;-76
2021/12/25 11:25:32;;;;;;;0.50;0.50;;;;;;;;;;10232440;28;20063;-76
2021/12/25 11:30:36;;;;;;;0.63;0.57;;;;;;;;;;10249862;28;20103;-75
2021/12/25 11:35:40;;;;;;;0.95;0.43;;;;;;;;;;10243057;28;20039;-74
2021/12/25 11:40:50;;;;;;;1.40;0.90;;;;;;;;;;10241011;28;20032;-75
2021/12/25 11:45:54;;;;;;;0.68;0.35;;;;;;;;;;10230433;28;20218;-76
2021/12/25 11:50:57;;;;;;;0.43;0.43;;;;;;;;;;10209209;28;20066;-75
2021/12/25 11:56:27;;;;;;;1.08;0.75;;;;;;;;;;10229625;23;20534;-77
2021/12/25 12:01:32;;;;;;;0.80;0.63;;;;;;;;;;10224648;28;20190;-80
2021/12/25 12:07:13;;;;;;;0.40;0.30;;;;;;;;;;10217080;29;20126;-79
2021/12/25 12:12:19;;;;;;;0.77;0.70;;;;;;;;;;10154557;23;20036;-69
2021/12/25 12:17:28;;;;;;;2.13;0.90;;;;;;;;;;10233052;28;20043;-70
2021/12/25 12:22:59;;;;;;;1.75;0.90;;;;;;;;;;10210591;28;20459;-70
2021/12/25 12:28:04;;;;;;;4.32;1.30;;;;;;;;;;10229303;28;20068;-70
2021/12/25 12:33:28;;;;;;;1.77;1.02;;;;;;;;;;10210471;28;20395;-69
2021/12/25 12:38:38;;;;;;;2.30;1.40;;;;;;;;;;10213196;28;20047;-69
2021/12/25 12:43:52;;;;;;;1.42;0.80;;;;;;;;;;10230418;28;20122;-69
2021/12/25 12:48:55;;;;;;;;;;;;;;;;;;10234442;28;20619;-71
2021/12/25 12:53:58;;;;;;;2.55;1.05;;;;;;;;;;10222916;28;19923;-70
2021/12/25 12:59:02;;;;;;;2.03;1.10;;;;;;;;;;10238513;28;20031;-69
2021/12/25 13:04:06;;;;;;;3.67;1.30;;;;;;;;;;10237396;28;20035;-70
2021/12/25 13:09:09;;;;;;;1.40;1.10;;;;;;;;;;10223029;28;20067;-70
2021/12/25 13:14:16;;;;;;;2.72;1.30;;;;;;;;;;10235992;28;20147;-69
2021/12/25 13:19:23;;;;;;;2.70;1.52;;;;;;;;;;10220584;28;20036;-70
2021/12/25 13:24:26;;;;;;;2.58;1.40;;;;;;;;;;10219016;28;20122;-69
2021/12/25 13:29:34;;;;;;;4.93;1.73;;;;;;;;;;10216696;28;20043;-68
2021/12/25 13:34:38;;;;;;;3.22;1.60;;;;;;;;;;10237855;28;20396;-70
2021/12/25 13:39:41;;;;;;;3.65;1.63;;;;;;;;;;10237256;28;20153;-69
2021/12/25 13:44:47;;;;;;;3.10;1.30;;;;;;;;;;10234436;28;20035;-71
2021/12/25 13:49:52;;;;;;;3.40;1.80;;;;;;;;;;10219173;28;20091;-71
2021/12/25 13:54:59;;;;;;;3.78;1.67;;;;;;;;;;10239314;28;20031;-70
2021/12/25 14:00:10;;;;;;;1.67;1.13;;;;;;;;;;10235650;28;20152;-69
2021/12/25 14:05:14;;;;;;;6.13;1.83;;;;;;;;;;10238056;28;20055;-70
2021/12/25 14:10:17;;;;;;;3.00;1.67;;;;;;;;;;10266821;28;20051;-70
2021/12/25 14:15:24;;;;;;;3.55;1.58;;;;;;;;;;10259060;28;20043;-70
2021/12/25 14:20:28;;;;;;;3.75;1.90;;;;;;;;;;10256176;28;20039;-70
2021/12/25 14:25:30;;;;;;;;;;;;;;;;;;10264555;28;20445;-69
2021/12/25 14:30:36;;;;;;;0.85;0.63;;;;;;;;;;10256118;28;19977;-71
2021/12/25 14:35:40;;;;;;;4.18;1.55;;;;;;;;;;10246903;28;20031;-71
2021/12/25 14:40:47;;;;;;;4.73;2.00;;;;;;;;;;10253686;28;20130;-70
2021/12/25 14:45:52;;;;;;;6.07;2.80;;;;;;;;;;10234089;28;20043;-69
2021/12/25 14:50:56;;;;;;;3.08;1.70;;;;;;;;;;10249269;28;20452;-69
2021/12/25 14:56:01;;;;;;;3.40;1.65;;;;;;;;;;10253593;28;20039;-70
2021/12/25 15:01:08;;;;;;;2.03;1.25;;;;;;;;;;10249634;28;20035;-70
2021/12/25 15:06:18;;;;;;;3.72;1.52;;;;;;;;;;10248580;28;20054;-70
2021/12/25 15:11:21;;;;;;;3.40;1.55;;;;;;;;;;10231229;28;20036;-71
2021/12/25 15:16:35;;;;;;;5.00;2.10;;;;;;;;;;10242717;28;20439;-70
2021/12/25 15:21:45;;;;;;;4.05;1.77;;;;;;;;;;10238331;28;20091;-70
2021/12/25 15:26:49;;;;;;;5.70;2.40;;;;;;;;;;10242022;28;20126;-70
2021/12/25 15:32:00;;;;;;;5.00;2.35;;;;;;;;;;10236605;28;20127;-69
2021/12/25 15:37:16;;;;;;;7.32;2.97;;;;;;;;;;10242002;28;20031;-70
2021/12/25 15:42:19;;;;;;;5.95;2.67;;;;;;;;;;10225054;28;20511;-71
2021/12/25 15:47:24;;;;;;;7.13;2.43;;;;;;;;;;10239001;28;20047;-70
2021/12/25 15:52:26;;;;;;;;;;;;;;;;;;10225641;29;20070;-71
2021/12/25 15:57:29;;;;;;;7.43;3.42;;;;;;;;;;10235484;28;20425;-71
2021/12/25 16:02:33;;;;;;;6.72;2.72;;;;;;;;;;10238631;28;20043;-70
2021/12/25 16:07:37;;;;;;;9.95;3.13;;;;;;;;;;10217420;28;20054;-70
2021/12/25 16:12:40;;;;;;;5.70;2.50;;;;;;;;;;10233757;28;20051;-70
2021/12/25 16:17:45;;;;;;;5.60;2.72;;;;;;;;;;10240688;28;20275;-70
2021/12/25 16:22:48;;;;;;;7.82;2.33;;;;;;;;;;10223389;28;20637;-69
2021/12/25 16:27:50;;;;;;;4.25;1.98;;;;;;;;;;10236095;28;20035;-69
2021/12/25 16:32:55;;;;;;;6.57;2.63;;;;;;;;;;10240504;28;20049;-69
2021/12/25 16:37:58;;;;;;;6.90;2.67;;;;;;;;;;10236835;28;20047;-69
2021/12/25 16:43:01;;;;;;;5.07;2.13;;;;;;;;;;10236596;28;20325;-69
2021/12/25 16:48:05;;;;;;;1.98;1.15;;;;;;;;;;10235708;28;20049;-70
2021/12/25 16:53:09;;;;;;;4.50;1.80;;;;;;;;;;10223143;28;20094;-70
2021/12/25 16:58:11;;;;;;;2.37;1.30;;;;;;;;;;10225326;28;20507;-70
2021/12/25 17:03:16;;;;;;;4.32;2.45;;;;;;;;;;10246837;28;20519;-70
2021/12/25 17:08:18;;;;;;;;;;;;;;;;;;10273445;28;20065;-71
2021/12/25 17:13:21;;;;;;;3.67;1.88;;;;;;;;;;10250635;28;19927;-70
2021/12/25 17:18:26;;;;;;;3.53;1.90;;;;;;;;;;10233802;28;20460;-69
2021/12/25 17:23:29;;;;;;;3.80;1.77;;;;;;;;;;10257556;28;20110;-71
2021/12/25 17:28:32;;;;;;;2.85;1.80;;;;;;;;;;10261344;28;20103;-70
2021/12/25 17:33:37;;;;;;;2.25;1.40;;;;;;;;;;10237563;28;20044;-71
2021/12/25 17:38:41;;;;;;;2.95;1.55;;;;;;;;;;10219920;28;20070;-70
2021/12/25 17:43:44;;;;;;;6.47;2.03;;;;;;;;;;10233088;28;20157;-72
2021/12/25 17:48:48;;;;;;;4.10;2.33;;;;;;;;;;10215345;28;20047;-70
2021/12/25 17:53:52;;;;;;;6.97;2.47;;;;;;;;;;10282200;23;20458;-74
2021/12/25 17:58:55;;;;;;;4.65;2.10;;;;;;;;;;10328337;28;20137;-78
2021/12/25 18:04:00;;;;;;;4.13;2.00;;;;;;;;;;10305892;28;20038;-76
2021/12/25 18:09:03;;;;;;;2.25;1.33;;;;;;;;;;10328122;28;20035;-77
2021/12/25 18:14:06;;;;;;;5.40;2.17;;;;;;;;;;10325096;28;20046;-76
2021/12/25 18:19:10;;;;;;;4.90;2.33;;;;;;;;;;10318480;28;20047;-77
2021/12/25 18:24:15;;;;;;;4.28;2.50;;;;;;;;;;10301113;28;20189;-77
2021/12/25 18:29:17;;;;;;;;;;;;;;;;;;10314933;28;20042;-76
2021/12/25 18:34:22;;;;;;;4.20;2.35;;;;;;;;;;10322643;28;19921;-78
2021/12/25 18:39:25;;;;;;;9.15;3.05;;;;;;;;;;10322134;28;20074;-76
2021/12/25 18:44:28;;;;;;;5.50;2.58;;;;;;;;;;10337147;28;20122;-78
2021/12/25 18:49:33;;;;;;;4.65;2.30;;;;;;;;;;10330084;28;20085;-77
2021/12/25 18:54:36;;;;;;;6.10;3.03;;;;;;;;;;10342007;28;20074;-78
2021/12/25 18:59:40;;;;;;;7.63;3.58;;;;;;;;;;10332516;28;20089;-78
2021/12/25 19:04:44;;;;;;;9.07;3.45;;;;;;;;;;10330422;28;20046;-77
2021/12/25 19:09:47;;;;;;;3.75;1.85;;;;;;;;;;10347526;28;20114;-77
2021/12/25 19:14:50;;;;;;;4.75;2.10;;;;;;;;;;10340210;28;20329;-78
2021/12/25 19:19:55;;;;;;;3.63;2.10;;;;;;;;;;10332367;28;20125;-77
2021/12/25 19:24:57;;;;;;;;;;;;;;;;;;10314358;28;20046;-76
2021/12/25 19:30:00;;;;;;;5.18;2.70;;;;;;;;;;10304543;28;19922;-75
2021/12/25 19:35:05;;;;;;;7.38;2.67;;;;;;;;;;10318904;28;20038;-77
2021/12/25 19:40:10;;;;;;;5.80;2.78;;;;;;;;;;10293741;28;20030;-77
2021/12/25 19:45:18;;;;;;;7.05;2.97;;;;;;;;;;10309552;28;20522;-76
2021/12/25 19:50:23;;;;;;;6.40;2.47;;;;;;;;;;10299553;28;20042;-77
2021/12/25 19:55:27;;;;;;;6.70;2.60;;;;;;;;;;10302900;28;20074;-77
2021/12/25 20:00:33;;;;;;;8.02;3.30;;;;;;;;;;10304402;28;20035;-77
2021/12/25 20:05:37;;;;;;;9.70;3.42;;;;;;;;;;10306715;28;20108;-77
2021/12/25 20:10:40;;;;;;;10.50;4.07;;;;;;;;;;10318090;28;20102;-76
2021/12/25 20:15:43;;;;;;;8.87;3.43;;;;;;;;;;10336188;28;20043;-76
2021/12/25 20:20:48;;;;;;;12.00;4.70;;;;;;;;;;10320051;28;20062;-77
2021/12/25 20:25:51;;;;;;;10.40;4.60;;;;;;;;;;10324772;28;20027;-76
2021/12/25 20:30:55;;;;;;;14.07;5.57;;;;;;;;;;10322713;28;20093;-77
2021/12/25 20:36:00;;;;;;;9.40;3.83;;;;;;;;;;10327320;28;20045;-78
2021/12/25 20:41:04;;;;;;;12.20;4.50;;;;;;;;;;10332249;28;20042;-77
2021/12/25 20:46:07;;;;;;;12.32;4.55;;;;;;;;;;10328405;28;20096;-77
2021/12/25 20:51:12;;;;;;;10.75;4.05;;;;;;;;;;10334794;28;20066;-76
2021/12/25 20:56:17;;;;;;;11.32;4.70;;;;;;;;;;10328295;28;20046;-79
2021/12/25 21:01:20;;;;;;;11.88;4.18;;;;;;;;;;10299370;28;20066;-77
2021/12/25 21:06:25;;;;;;;9.73;4.10;;;;;;;;;;10317891;28;20486;-76
2021/12/25 21:11:27;;;;;;;;;;;;;;;;;;10292157;28;20045;-78
2021/12/25 21:16:30;;;;;;;10.07;4.20;;;;;;;;;;10287068;28;20054;-76
2021/12/25 21:21:35;;;;;;;10.65;3.88;;;;;;;;;;10294651;28;20039;-76
2021/12/25 21:26:38;;;;;;;11.93;4.90;;;;;;;;;;10317476;28;20042;-77
2021/12/25 21:31:40;;;;;;;9.95;4.30;;;;;;;;;;10310215;28;20050;-76
2021/12/25 21:36:45;;;;;;;12.13;4.33;;;;;;;;;;10307793;28;20299;-76
2021/12/25 21:41:48;;;;;;;12.67;4.30;;;;;;;;;;10315901;28;20383;-76
2021/12/25 21:46:51;;;;;;;14.30;4.93;;;;;;;;;;10294438;28;20048;-76
2021/12/25 21:51:55;;;;;;;11.27;4.53;;;;;;;;;;10293548;28;20417;-76
2021/12/25 21:56:59;;;;;;;10.65;4.55;;;;;;;;;;10298374;28;20129;-77
2021/12/25 22:02:03;;;;;;;9.88;4.13;;;;;;;;;;10308871;28;20467;-77
2021/12/25 22:07:15;;;;;;;12.50;4.78;;;;;;;;;;10315941;28;20078;-77
2021/12/25 22:12:19;;;;;;;9.00;3.53;;;;;;;;;;10314123;28;20035;-77
2021/12/25 22:17:22;;;;;;;13.03;4.90;;;;;;;;;;10323549;28;20093;-76
2021/12/25 22:22:27;;;;;;;13.40;5.22;;;;;;;;;;10337593;28;20357;-78
2021/12/25 22:27:30;;;;;;;12.88;4.65;;;;;;;;;;10324554;28;20089;-76
2021/12/25 22:32:36;;;;;;;13.00;4.67;;;;;;;;;;10302366;28;20038;-77
2021/12/25 22:37:41;;;;;;;14.00;5.18;;;;;;;;;;10329975;28;20058;-76
2021/12/25 22:42:46;;;;;;;14.53;5.77;;;;;;;;;;10327777;28;20034;-76
2021/12/25 22:47:49;;;;;;;15.00;5.50;;;;;;;;;;10328405;28;20034;-75
2021/12/25 22:52:54;;;;;;;15.13;5.78;;;;;;;;;;10323299;28;20288;-76
2021/12/25 22:57:58;;;;;;;14.23;5.20;;;;;;;;;;10324895;28;20042;-77
2021/12/25 23:03:01;;;;;;;15.60;5.25;;;;;;;;;;10314368;28;20037;-75
2021/12/25 23:08:08;;;;;;;18.02;5.32;;;;;;;;;;10295493;28;20053;-75
2021/12/25 23:13:11;;;;;;;13.63;4.90;;;;;;;;;;10286624;28;20166;-75
2021/12/25 23:18:15;;;;;;;11.97;4.00;;;;;;;;;;10316519;28;20077;-76
2021/12/25 23:23:20;;;;;;;13.50;4.70;;;;;;;;;;10313355;28;20065;-76
2021/12/25 23:28:23;;;;;;;3.87;2.13;;;;;;;;;;10322914;28;20116;-75
2021/12/25 23:33:25;;;;;;;9.87;3.43;;;;;;;;;;10315011;28;20049;-76
2021/12/25 23:38:30;;;;;;;12.87;5.03;;;;;;;;;;10317513;28;20044;-76
2021/12/25 23:43:35;;;;;;;14.33;5.23;;;;;;;;;;10323416;28;20093;-74
2021/12/25 23:48:38;;;;;;;15.37;5.43;;;;;;;;;;10310091;28;20387;-76
2021/12/25 23:53:44;;;;;;;15.77;6.13;;;;;;;;;;10317705;23;20063;-79
2021/12/25 23:58:48;;;;;;;16.87;5.70;;;;;;;;;;10228647;28;20480;-78
